createdAt,value
2019-01-26T00:01:41.658Z,27.87
2019-01-26T00:04:10.895Z,24.10
2019-01-26T00:06:39.772Z,26.30
2019-01-26T00:09:10.546Z,27.97
2019-01-26T00:11:39.466Z,26.00
2019-01-26T00:14:08.485Z,29.17
2019-01-26T00:16:38.487Z,25.70
2019-01-26T00:19:07.446Z,28.60
2019-01-26T00:21:36.587Z,25.00
2019-01-26T00:24:07.686Z,23.73
2019-01-26T00:26:36.562Z,30.17
2019-01-26T00:29:05.859Z,26.17
2019-01-26T00:31:35.019Z,24.23
2019-01-26T00:34:03.921Z,27.93
2019-01-26T00:36:33.443Z,27.20
2019-01-26T00:39:02.354Z,25.73
2019-01-26T00:41:31.139Z,24.50
2019-01-26T00:44:00.805Z,28.67
2019-01-26T00:46:30.654Z,28.33
2019-01-26T00:48:59.455Z,25.47
2019-01-26T00:51:28.659Z,29.63
2019-01-26T00:53:57.958Z,27.23
2019-01-26T00:56:27.331Z,31.10
2019-01-26T00:58:56.265Z,29.27
2019-01-26T01:01:25.910Z,30.17
2019-01-26T01:03:54.901Z,30.43
2019-01-26T01:06:26.026Z,29.37
2019-01-26T01:08:54.529Z,28.10
2019-01-26T01:11:23.597Z,29.77
2019-01-26T01:13:52.406Z,29.93
2019-01-26T01:16:21.608Z,29.57
2019-01-26T01:18:50.773Z,29.43
2019-01-26T01:21:19.562Z,27.17
2019-01-26T01:23:48.628Z,28.27
2019-01-26T01:26:20.788Z,28.97
2019-01-26T01:28:49.963Z,27.80
2019-01-26T01:31:19.067Z,29.23
2019-01-26T01:33:48.467Z,30.87
2019-01-26T01:36:17.458Z,28.00
2019-01-26T01:38:46.402Z,27.67
2019-01-26T01:41:15.230Z,29.83
2019-01-26T01:43:44.377Z,31.80
2019-01-26T01:46:43.426Z,27.93
2019-01-26T01:49:12.831Z,27.00
2019-01-26T01:51:42.033Z,29.90
2019-01-26T01:54:10.970Z,29.90
2019-01-26T01:56:39.754Z,28.70
2019-01-26T01:59:08.597Z,30.90
2019-01-26T02:01:38.009Z,30.97
2019-01-26T02:04:07.098Z,30.30
2019-01-26T02:06:36.044Z,31.63
2019-01-26T02:09:08.629Z,29.13
2019-01-26T02:11:40.759Z,27.97
2019-01-26T02:14:09.921Z,28.30
2019-01-26T02:16:39.082Z,28.17
2019-01-26T02:19:07.898Z,27.67
2019-01-26T02:21:37.019Z,30.00
2019-01-26T02:24:06.174Z,26.07
2019-01-26T02:26:35.138Z,28.03
2019-01-26T02:29:04.657Z,27.43
2019-01-26T02:31:33.887Z,25.80
2019-01-26T02:34:02.684Z,28.63
2019-01-26T02:36:31.554Z,26.50
2019-01-26T02:39:00.687Z,26.43
2019-01-26T02:41:29.700Z,25.43
2019-01-26T02:43:59.162Z,24.93
2019-01-26T02:46:27.993Z,23.07
2019-01-26T02:48:57.501Z,24.87
2019-01-26T02:51:26.594Z,22.37
2019-01-26T02:53:55.872Z,25.93
2019-01-26T02:56:24.683Z,23.03
2019-01-26T02:58:53.677Z,26.07
2019-01-26T03:01:22.579Z,21.97
2019-01-26T03:03:51.531Z,22.27
2019-01-26T03:06:20.358Z,23.23
2019-01-26T03:08:49.250Z,21.50
2019-01-26T03:11:18.094Z,21.57
2019-01-26T03:13:46.901Z,22.10
2019-01-26T03:16:16.069Z,22.70
2019-01-26T03:18:45.126Z,24.17
2019-01-26T03:21:13.917Z,20.63
2019-01-26T03:23:42.771Z,20.47
2019-01-26T03:26:11.734Z,19.90
2019-01-26T03:28:41.187Z,23.53
2019-01-26T03:31:10.564Z,22.43
2019-01-26T03:33:39.706Z,23.67
2019-01-26T03:36:08.500Z,21.37
2019-01-26T03:38:37.334Z,21.37
2019-01-26T03:41:06.466Z,20.13
2019-01-26T03:43:35.913Z,21.37
2019-01-26T03:46:05.233Z,22.07
2019-01-26T03:48:34.319Z,19.83
2019-01-26T03:51:03.425Z,22.13
2019-01-26T03:53:32.750Z,18.33
2019-01-26T03:59:29.666Z,20.73
2019-01-26T04:01:58.862Z,19.10
2019-01-26T04:04:29.237Z,19.50
2019-01-26T04:06:58.425Z,20.83
2019-01-26T04:09:27.962Z,19.13
2019-01-26T04:11:57.742Z,19.40
2019-01-26T04:14:27.100Z,20.33
2019-01-26T04:16:55.983Z,19.47
2019-01-26T04:19:24.812Z,18.70
2019-01-26T04:21:53.722Z,18.43
2019-01-26T04:24:22.508Z,17.97
2019-01-26T04:26:51.450Z,17.73
2019-01-26T04:29:20.268Z,18.30
2019-01-26T04:31:49.019Z,18.07
2019-01-26T04:34:17.839Z,18.57
2019-01-26T04:36:46.661Z,18.90
2019-01-26T04:39:15.792Z,17.93
2019-01-26T04:41:45.188Z,18.20
2019-01-26T04:44:14.454Z,18.80
2019-01-26T04:46:43.741Z,16.90
2019-01-26T04:49:12.817Z,17.27
2019-01-26T04:51:41.647Z,18.93
2019-01-26T04:54:10.871Z,14.70
2019-01-26T04:56:39.717Z,17.10
2019-01-26T04:59:08.592Z,17.63
2019-01-26T05:01:37.417Z,16.13
2019-01-26T05:04:06.297Z,15.93
2019-01-26T05:06:35.134Z,15.93
2019-01-26T05:09:05.976Z,17.33
2019-01-26T05:11:34.805Z,15.63
2019-01-26T05:14:03.759Z,15.77
2019-01-26T05:16:32.897Z,15.10
2019-01-26T05:19:01.817Z,16.47
2019-01-26T05:21:30.688Z,15.30
2019-01-26T05:23:59.903Z,16.23
2019-01-26T05:26:29.052Z,15.20
2019-01-26T05:28:57.877Z,14.80
2019-01-26T05:31:27.017Z,14.07
2019-01-26T05:33:55.820Z,14.73
2019-01-26T05:36:24.674Z,14.73
2019-01-26T05:38:53.894Z,15.33
2019-01-26T05:41:22.684Z,13.90
2019-01-26T05:43:51.843Z,15.33
2019-01-26T05:46:21.054Z,14.33
2019-01-26T05:48:50.190Z,13.47
2019-01-26T05:51:19.709Z,13.47
2019-01-26T05:53:48.609Z,12.23
2019-01-26T05:56:18.524Z,12.97
2019-01-26T05:58:47.440Z,11.43
2019-01-26T06:01:16.272Z,13.33
2019-01-26T06:03:45.395Z,13.10
2019-01-26T06:06:14.216Z,12.93
2019-01-26T06:08:43.076Z,12.60
2019-01-26T06:11:11.973Z,11.30
2019-01-26T06:13:40.912Z,11.63
2019-01-26T06:16:09.976Z,11.60
2019-01-26T06:18:38.836Z,11.83
2019-01-26T06:21:07.882Z,11.13
2019-01-26T06:23:36.803Z,11.90
2019-01-26T06:26:05.931Z,11.77
2019-01-26T06:28:35.327Z,10.33
2019-01-26T06:31:04.269Z,11.23
2019-01-26T06:33:33.087Z,10.47
2019-01-26T06:36:19.706Z,11.57
2019-01-26T06:38:48.568Z,10.60
2019-01-26T06:41:17.443Z,11.00
2019-01-26T06:43:47.929Z,10.70
2019-01-26T06:46:17.105Z,11.60
2019-01-26T06:48:47.693Z,10.63
2019-01-26T06:51:17.612Z,12.30
2019-01-26T06:53:47.129Z,10.90
2019-01-26T06:56:34.196Z,11.40
2019-01-26T06:59:06.105Z,11.60
2019-01-26T07:01:36.288Z,11.13
2019-01-26T07:04:06.475Z,12.10
2019-01-26T07:10:05.780Z,11.77
2019-01-26T07:12:34.576Z,11.07
2019-01-26T07:15:04.244Z,11.50
2019-01-26T07:17:33.603Z,11.67
2019-01-26T07:20:02.566Z,11.13
2019-01-26T07:22:31.632Z,11.43
2019-01-26T07:25:00.563Z,10.87
2019-01-26T07:27:29.451Z,11.13
2019-01-26T07:29:58.373Z,11.60
2019-01-26T07:33:18.843Z,11.33
2019-01-26T07:35:47.837Z,11.53
2019-01-26T07:38:17.862Z,10.93
2019-01-26T07:40:47.174Z,9.77
2019-01-26T07:43:16.221Z,10.97
2019-01-26T07:45:45.146Z,10.57
2019-01-26T07:48:16.862Z,9.70
2019-01-26T07:50:45.279Z,10.33
2019-01-26T07:53:14.058Z,11.17
2019-01-26T07:55:43.058Z,10.90
2019-01-26T07:58:11.852Z,11.73
2019-01-26T08:00:40.970Z,10.87
2019-01-26T08:03:09.870Z,10.83
2019-01-26T08:05:38.711Z,11.70
2019-01-26T08:08:08.028Z,12.30
2019-01-26T08:10:37.098Z,11.13
2019-01-26T08:13:08.041Z,12.00
2019-01-26T08:15:38.573Z,11.00
2019-01-26T08:18:13.153Z,10.30
2019-01-26T08:20:46.004Z,12.00
2019-01-26T08:23:14.795Z,9.73
2019-01-26T08:25:43.902Z,10.63
2019-01-26T08:28:13.310Z,9.97
2019-01-26T08:30:42.221Z,12.63
2019-01-26T08:33:11.476Z,11.43
2019-01-26T08:35:40.645Z,13.30
2019-01-26T08:38:10.073Z,11.67
2019-01-26T08:40:38.835Z,10.43
2019-01-26T08:43:08.061Z,11.87
2019-01-26T08:45:37.409Z,10.93
2019-01-26T08:48:06.832Z,12.07
2019-01-26T08:50:35.698Z,11.57
2019-01-26T08:53:05.196Z,11.60
2019-01-26T08:55:34.655Z,10.83
2019-01-26T08:58:04.050Z,12.27
2019-01-26T09:00:33.008Z,11.67
2019-01-26T09:03:21.109Z,11.17
2019-01-26T09:06:12.206Z,11.07
2019-01-26T09:08:41.474Z,11.40
2019-01-26T09:11:10.824Z,10.97
2019-01-26T09:13:40.291Z,10.93
2019-01-26T09:16:09.248Z,12.67
2019-01-26T09:18:39.149Z,14.77
2019-01-26T09:21:08.008Z,15.07
2019-01-26T09:23:37.018Z,13.20
2019-01-26T09:26:06.001Z,12.40
2019-01-26T09:28:35.546Z,13.37
2019-01-26T09:31:04.639Z,12.30
2019-01-26T09:33:33.411Z,13.63
2019-01-26T09:36:02.962Z,13.67
2019-01-26T09:38:32.178Z,14.03
2019-01-26T09:41:01.402Z,14.13
2019-01-26T09:43:30.327Z,15.70
2019-01-26T09:45:59.169Z,14.70
2019-01-26T09:48:28.346Z,14.63
2019-01-26T09:50:57.770Z,15.87
2019-01-26T09:53:27.122Z,15.10
2019-01-26T09:55:56.586Z,14.80
2019-01-26T09:58:28.085Z,15.77
2019-01-26T10:00:57.087Z,14.50
2019-01-26T10:03:27.062Z,13.50
2019-01-26T10:05:56.024Z,13.10
2019-01-26T10:08:24.981Z,13.53
2019-01-26T10:10:55.233Z,13.23
2019-01-26T10:13:24.688Z,12.77
2019-01-26T10:15:53.682Z,12.70
2019-01-26T10:18:23.469Z,11.00
2019-01-26T10:20:52.894Z,11.33
2019-01-26T10:23:21.794Z,11.97
2019-01-26T10:25:50.612Z,12.17
2019-01-26T10:28:19.924Z,12.50
2019-01-26T10:31:07.170Z,12.43
2019-01-26T10:33:36.024Z,12.37
2019-01-26T10:36:24.422Z,11.73
2019-01-26T10:39:02.206Z,13.53
2019-01-26T10:41:46.121Z,12.67
2019-01-26T10:44:20.488Z,13.50
2019-01-26T10:46:51.856Z,13.80
2019-01-26T10:49:20.902Z,15.30
2019-01-26T10:51:50.043Z,14.63
2019-01-26T10:54:18.923Z,15.07
2019-01-26T10:56:48.340Z,13.87
2019-01-26T10:59:17.242Z,13.80
2019-01-26T11:01:46.511Z,13.40
2019-01-26T11:04:15.555Z,14.63
2019-01-26T11:06:44.367Z,14.03
2019-01-26T11:09:13.662Z,13.43
2019-01-26T11:11:42.710Z,15.20
2019-01-26T11:14:11.680Z,13.53
2019-01-26T11:17:18.115Z,15.37
2019-01-26T11:19:47.799Z,15.20
2019-01-26T11:25:33.079Z,15.83
2019-01-26T11:28:02.209Z,16.50
2019-01-26T11:30:32.182Z,15.87
2019-01-26T11:33:05.044Z,15.77
2019-01-26T11:35:34.121Z,16.43
2019-01-26T11:38:14.402Z,14.67
2019-01-26T11:40:55.931Z,15.43
2019-01-26T11:43:25.599Z,13.63
2019-01-26T11:46:06.920Z,15.27
2019-01-26T11:52:12.710Z,14.77
2019-01-26T11:55:03.006Z,14.60
2019-01-26T11:57:39.173Z,14.37
2019-01-26T12:00:34.004Z,15.70
2019-01-26T12:03:34.240Z,16.27
2019-01-26T12:06:10.022Z,15.07
2019-01-26T12:08:39.434Z,15.73
2019-01-26T12:11:08.667Z,15.53
2019-01-26T12:13:38.091Z,17.47
2019-01-26T12:16:06.982Z,17.73
2019-01-26T12:18:37.326Z,15.93
2019-01-26T12:21:08.460Z,15.30
2019-01-26T12:23:37.385Z,16.53
2019-01-26T12:26:06.407Z,14.87
2019-01-26T12:28:37.183Z,16.17
2019-01-26T12:31:06.485Z,16.77
2019-01-26T12:33:35.383Z,17.20
2019-01-26T12:36:04.563Z,14.77
2019-01-26T12:38:33.596Z,14.97
2019-01-26T12:41:02.515Z,15.37
2019-01-26T12:43:31.614Z,14.30
2019-01-26T12:46:00.931Z,15.77
2019-01-26T12:48:29.862Z,17.70
2019-01-26T12:50:58.883Z,15.30
2019-01-26T12:53:28.320Z,16.27
2019-01-26T12:55:57.474Z,15.97
2019-01-26T12:58:26.391Z,16.73
2019-01-26T13:00:55.363Z,16.93
2019-01-26T13:03:24.148Z,16.67
2019-01-26T13:06:32.289Z,17.07
2019-01-26T13:09:01.730Z,16.47
2019-01-26T13:11:30.926Z,15.60
2019-01-26T13:13:59.903Z,16.50
2019-01-26T13:16:28.978Z,16.10
2019-01-26T13:18:57.965Z,18.13
2019-01-26T13:21:27.117Z,17.40
2019-01-26T13:23:55.988Z,17.17
2019-01-26T13:26:24.922Z,18.43
2019-01-26T13:28:53.731Z,17.30
2019-01-26T13:31:22.728Z,16.80
2019-01-26T13:33:51.613Z,17.63
2019-01-26T13:36:20.624Z,17.50
2019-01-26T13:38:49.668Z,16.30
2019-01-26T13:41:18.771Z,17.83
2019-01-26T13:43:47.664Z,15.53
2019-01-26T13:46:16.889Z,16.50
2019-01-26T13:48:45.723Z,17.17
2019-01-26T13:51:14.664Z,15.97
2019-01-26T13:53:43.510Z,15.43
2019-01-26T13:56:12.791Z,14.77
2019-01-26T13:58:41.700Z,15.73
2019-01-26T14:01:15.024Z,16.70
2019-01-26T14:03:43.891Z,14.53
2019-01-26T14:06:12.782Z,14.70
2019-01-26T14:08:41.908Z,15.37
2019-01-26T14:11:10.891Z,14.73
2019-01-26T14:13:41.259Z,15.90
2019-01-26T14:16:10.143Z,13.87
2019-01-26T14:18:39.281Z,14.90
2019-01-26T14:21:08.068Z,15.13
2019-01-26T14:23:37.514Z,15.43
2019-01-26T14:26:06.531Z,15.90
2019-01-26T14:28:38.760Z,15.23
2019-01-26T14:31:08.771Z,14.03
2019-01-26T14:33:37.970Z,15.13
2019-01-26T14:36:07.634Z,13.43
2019-01-26T14:38:36.853Z,15.00
2019-01-26T14:41:06.116Z,13.63
2019-01-26T14:43:35.263Z,13.80
2019-01-26T14:46:04.151Z,13.70
2019-01-26T14:48:33.933Z,13.37
2019-01-26T14:51:02.845Z,14.47
2019-01-26T14:53:32.045Z,13.63
2019-01-26T14:56:01.604Z,14.97
2019-01-26T14:58:30.911Z,13.77
2019-01-26T15:01:00.212Z,13.53
2019-01-26T15:03:29.113Z,13.80
2019-01-26T15:05:57.962Z,13.73
2019-01-26T15:08:26.763Z,15.13
2019-01-26T15:10:56.332Z,12.70
2019-01-26T15:13:25.514Z,12.80
2019-01-26T15:15:54.485Z,12.13
2019-01-26T15:18:23.294Z,13.57
2019-01-26T15:20:52.114Z,13.63
2019-01-26T15:23:21.435Z,13.47
2019-01-26T15:25:50.379Z,12.30
2019-01-26T15:28:19.990Z,12.83
2019-01-26T15:30:49.076Z,12.43
2019-01-26T15:33:18.243Z,13.63
2019-01-26T15:35:47.773Z,13.60
2019-01-26T15:38:19.225Z,14.20
2019-01-26T15:40:48.173Z,14.80
2019-01-26T15:43:19.746Z,14.13
2019-01-26T15:45:50.143Z,13.67
2019-01-26T15:48:19.323Z,13.80
2019-01-26T15:50:48.665Z,12.10
2019-01-26T15:53:17.876Z,10.60
2019-01-26T15:55:46.693Z,12.27
2019-01-26T15:58:15.629Z,12.83
2019-01-26T16:00:45.962Z,11.67
2019-01-26T16:03:15.141Z,11.90
2019-01-26T16:05:44.171Z,12.27
2019-01-26T16:08:13.099Z,12.53
2019-01-26T16:10:42.192Z,11.73
2019-01-26T16:13:11.138Z,11.27
2019-01-26T16:15:40.426Z,11.03
2019-01-26T16:18:12.939Z,10.50
2019-01-26T16:20:43.790Z,10.53
2019-01-26T16:23:12.736Z,11.00
2019-01-26T16:25:41.943Z,10.57
2019-01-26T16:28:10.916Z,10.87
2019-01-26T16:30:40.248Z,11.50
2019-01-26T16:33:09.142Z,11.87
2019-01-26T16:35:38.247Z,12.30
2019-01-26T16:38:07.276Z,10.07
2019-01-26T16:40:36.762Z,9.97
2019-01-26T16:43:05.931Z,11.27
2019-01-26T16:45:37.666Z,10.90
2019-01-26T16:48:09.058Z,9.60
2019-01-26T16:50:38.152Z,9.30
2019-01-26T16:53:07.245Z,10.20
2019-01-26T16:55:36.480Z,10.67
2019-01-26T16:58:06.289Z,11.23
2019-01-26T17:00:38.665Z,11.77
2019-01-26T17:03:07.876Z,10.57
2019-01-26T17:05:37.276Z,10.53
2019-01-26T17:08:06.871Z,10.33
2019-01-26T17:10:35.973Z,10.10
2019-01-26T17:13:05.404Z,10.37
2019-01-26T17:15:34.816Z,11.43
2019-01-26T17:18:04.651Z,11.77
2019-01-26T17:20:35.125Z,10.83
2019-01-26T17:23:04.503Z,12.90
2019-01-26T17:25:34.216Z,10.77
2019-01-26T17:28:03.402Z,10.87
2019-01-26T17:30:34.607Z,11.53
2019-01-26T17:33:07.571Z,13.57
2019-01-26T17:35:34.908Z,12.43
2019-01-26T17:38:04.121Z,12.63
2019-01-26T17:40:33.197Z,13.17
2019-01-26T17:43:02.029Z,12.90
2019-01-26T17:45:31.340Z,14.67
2019-01-26T17:48:00.685Z,14.87
2019-01-26T17:50:30.662Z,14.67
2019-01-26T17:52:59.858Z,14.73
2019-01-26T17:55:29.072Z,14.23
2019-01-26T17:57:58.029Z,13.33
2019-01-26T18:00:33.982Z,14.50
2019-01-26T18:03:03.256Z,14.97
2019-01-26T18:05:32.458Z,14.47
2019-01-26T18:08:01.541Z,14.50
2019-01-26T18:10:30.498Z,14.13
2019-01-26T18:12:59.330Z,13.63
2019-01-26T18:18:04.031Z,14.77
2019-01-26T18:23:06.255Z,14.10
2019-01-26T18:25:37.332Z,14.13
2019-01-26T18:28:06.650Z,13.27
2019-01-26T18:30:35.974Z,14.37
2019-01-26T18:33:05.160Z,13.63
2019-01-26T18:35:34.127Z,13.70
2019-01-26T18:38:03.023Z,14.57
2019-01-26T18:40:31.933Z,15.80
2019-01-26T18:43:01.414Z,15.30
2019-01-26T18:45:30.490Z,15.07
2019-01-26T18:47:59.846Z,15.10
2019-01-26T18:50:30.476Z,16.40
2019-01-26T18:52:59.603Z,18.80
2019-01-26T18:55:28.998Z,19.57
2019-01-26T18:57:57.922Z,19.20
2019-01-26T19:00:32.214Z,19.53
2019-01-26T19:03:13.894Z,17.37
2019-01-26T19:05:42.777Z,18.17
2019-01-26T19:08:11.650Z,16.97
2019-01-26T19:10:40.534Z,18.20
2019-01-26T19:13:09.561Z,17.87
2019-01-26T19:15:39.540Z,18.43
2019-01-26T19:18:08.548Z,21.57
2019-01-26T19:20:37.793Z,20.23
2019-01-26T19:23:07.705Z,21.23
2019-01-26T19:25:36.600Z,20.73
2019-01-26T19:28:05.596Z,18.97
2019-01-26T19:30:53.319Z,20.63
2019-01-26T19:33:22.395Z,17.53
2019-01-26T19:35:51.276Z,21.07
2019-01-26T19:38:20.133Z,22.30
2019-01-26T19:40:49.361Z,20.30
2019-01-26T19:43:18.236Z,21.23
2019-01-26T19:45:47.144Z,21.70
2019-01-26T19:48:16.303Z,22.23
2019-01-26T19:50:45.342Z,20.47
2019-01-26T19:53:14.717Z,20.70
2019-01-26T19:55:44.436Z,20.00
2019-01-26T19:58:13.293Z,22.20
2019-01-26T20:00:42.303Z,18.97
2019-01-26T20:03:11.194Z,19.03
2019-01-26T20:05:40.061Z,17.93
2019-01-26T20:08:09.006Z,21.07
2019-01-26T20:10:38.418Z,20.33
2019-01-26T20:13:08.355Z,20.87
2019-01-26T20:15:37.234Z,20.43
2019-01-26T20:18:06.415Z,24.67
2019-01-26T20:20:35.784Z,25.70
2019-01-26T20:23:04.767Z,20.80
2019-01-26T20:25:33.741Z,20.97
2019-01-26T20:28:03.933Z,18.70
2019-01-26T20:30:33.441Z,21.60
2019-01-26T20:33:02.949Z,18.43
2019-01-26T20:35:32.312Z,18.00
2019-01-26T20:38:01.190Z,17.53
2019-01-26T20:40:30.324Z,16.37
2019-01-26T20:42:59.554Z,16.87
2019-01-26T20:45:28.926Z,16.17
2019-01-26T20:47:57.929Z,16.77
2019-01-26T20:50:26.789Z,16.83
2019-01-26T20:52:56.200Z,17.60
2019-01-26T20:55:25.123Z,14.87
2019-01-26T20:57:54.021Z,16.53
2019-01-26T21:00:25.418Z,16.43
2019-01-26T21:02:54.714Z,19.47
2019-01-26T21:05:23.970Z,19.10
2019-01-26T21:07:52.994Z,17.50
2019-01-26T21:10:24.270Z,17.47
2019-01-26T21:12:53.644Z,18.23
2019-01-26T21:15:22.853Z,19.30
2019-01-26T21:17:51.858Z,18.23
2019-01-26T21:20:21.611Z,18.43
2019-01-26T21:22:50.601Z,17.43
2019-01-26T21:25:19.996Z,18.63
2019-01-26T21:27:49.110Z,17.73
2019-01-26T21:30:23.218Z,18.63
2019-01-26T21:32:52.465Z,18.93
2019-01-26T21:35:21.558Z,17.63
2019-01-26T21:37:51.578Z,19.30
2019-01-26T21:40:26.106Z,18.17
2019-01-26T21:42:55.428Z,18.67
2019-01-26T21:45:24.828Z,19.93
2019-01-26T21:47:54.009Z,18.53
2019-01-26T21:50:27.501Z,19.90
2019-01-26T21:52:56.683Z,20.77
2019-01-26T21:55:26.052Z,22.10
2019-01-26T21:57:55.143Z,20.53
2019-01-26T22:00:27.396Z,19.33
2019-01-26T22:02:57.630Z,19.57
2019-01-26T22:05:27.134Z,20.33
2019-01-26T22:07:56.568Z,16.93
2019-01-26T22:10:26.263Z,18.87
2019-01-26T22:12:55.566Z,19.40
2019-01-26T22:15:25.080Z,19.17
2019-01-26T22:17:54.052Z,19.53
2019-01-26T22:20:25.224Z,20.93
2019-01-26T22:22:54.543Z,21.47
2019-01-26T22:25:24.450Z,29.15
2019-01-26T22:27:54.845Z,24.10
2019-01-26T22:30:25.901Z,21.13
2019-01-26T22:32:55.465Z,22.00
2019-01-26T22:35:24.815Z,20.90
2019-01-26T22:37:54.244Z,21.50
2019-01-26T22:40:30.986Z,20.30
2019-01-26T22:43:00.309Z,19.83
2019-01-26T22:45:30.051Z,20.63
2019-01-26T22:47:59.435Z,20.20
2019-01-26T22:50:28.734Z,21.60
2019-01-26T22:52:57.980Z,22.80
2019-01-26T22:55:27.333Z,22.17
2019-01-26T22:57:56.703Z,22.33
2019-01-26T23:01:03.989Z,21.43
2019-01-26T23:03:54.539Z,19.87
2019-01-26T23:07:32.087Z,23.07
2019-01-26T23:10:38.971Z,19.83
2019-01-26T23:13:28.144Z,20.70
2019-01-26T23:16:37.398Z,23.87
2019-01-26T23:19:29.605Z,23.10
2019-01-26T23:22:39.868Z,22.00
2019-01-26T23:26:01.697Z,20.97
2019-01-26T23:29:01.037Z,22.10
2019-01-26T23:31:29.972Z,23.53
2019-01-26T23:33:58.785Z,25.13
2019-01-26T23:36:38.859Z,23.50
2019-01-26T23:39:09.440Z,24.33
2019-01-26T23:41:38.328Z,26.57
2019-01-26T23:44:07.187Z,25.63
2019-01-26T23:46:35.986Z,24.77
2019-01-26T23:49:05.140Z,22.77
2019-01-26T23:51:34.392Z,29.10
2019-01-26T23:54:03.708Z,27.93
2019-01-26T23:56:32.481Z,27.20
2019-01-26T23:59:01.987Z,26.80
